Green Valley, Arizona
Current Conditions -  °F | °C
As of 4:53 PM on Friday 19 Dec 2014 (Local Time) from KTUS Reporting Station
Clear Clear  
Wind Chill: 59°   Ceiling: Unl
Heat Index: 59°   Visibility: 10mi
Dew Point: 36°   Wind: 5mph
Humidity: 42%   Direction: 330°NNW
Pressure: 30.12"   Gusts: NA
Location:  31.91°N, 110.98°W
Report Text: KTUS 192353Z 33004KT 10SM CLR 15/02 A3012 RMK AO2 SLP187 T01500022 10161 20106 55008
Loading
Personal Weather Stations






























Interactive Weather Map New forecast layout! Learn more

10-Day Weather Forecast

Advertisements
Track Severe Weather on mobile